Terminal Aerodrome Forecast
Issued by NWS

Home | Current Version | Previous Version | Text Only | Print | Product List | Glossary On
Versions: 1 2 3 4 5 6 7 8 9 10 11 12 13
000
FTUS46 KLOX 270540
TAFPMD
TAF
KPMD 270540Z 2706/2806 20006KT P6SM SKC
     FM271400 VRB03KT P6SM SKC
     FM272100 24014G22KT P6SM SKC
     FM280300 21010KT P6SM SKC=

USA.gov is the U.S. government's official web portal to all federal, state and local government web resources and services.